Sydney, New South Wales

2:32 AM EST on August 21, 2014 (GMT +1000)
Kingsford Smith International | Change Station
CLOSE
Current Station
Airport
Location: Sydney,
Elevation: 20 ft
Nearby Weather Stations

Elev 20 ft 33.95 °S, 151.17 °E | Updated 32 minutes ago

Rain Showers
Showers Rain
52 °F
Feels Like 52 °F
N
5
Wind Variable Wind from West

Today
High -- | Low -- °F
--% Chance of Precip.
Yesterday
High -- | Low -- °F
Precip. -- in
6:28 AM 5:29 PM
Waning Crescent, 20% visible
Pressure 30.33 in
Visibility 3.7 miles
Clouds Few 1600 ft
Scattered Clouds 2500 ft
Mostly Cloudy 3200 ft
Dew Point 48 °F
Humidity 88%
Rainfall 0.00 in
Snow Depth Not available.
UV 0 out of 12
Pollen Not available.
Air Quality Not available.
Flu Activity Not available.
SPECI YSSY 201600Z 27004KT 6000 SHRA FEW016 SCT025 BKN032 11/09 Q1027 FM1630 27008KT 9999 -SHRA SCT020 BKN030 INTER 1600/1900 5000 SHRA FEW015 BKN020

More Conditions Fewer Conditions

Pressure 30.33 in
Visibility 3.7 miles
Clouds Few 1600 ft
Scattered Clouds 2500 ft
Mostly Cloudy 3200 ft
Dew Point 48 °F
Humidity 88%
Rainfall 0.00 in
Snow Depth Not available.
UV 0 out of 12
Pollen Not available.
Air Quality Not available.
Flu Activity Not available.
SPECI YSSY 201600Z 27004KT 6000 SHRA FEW016 SCT025 BKN032 11/09 Q1027 FM1630 27008KT 9999 -SHRA SCT020 BKN030 INTER 1600/1900 5000 SHRA FEW015 BKN020

More Conditions Fewer Conditions

10-Day Weather Forecast

Almanac

Astronomy

Aug. 21, 2014 Rise Set
Actual Time 6:28 AM EST 5:29 PM EST
Civil Twilight 6:02 AM EST 5:54 PM EST
Nautical Twilight 5:33 AM EST 6:24 PM EST
Astronomical Twilight 5:04 AM EST 6:53 PM EST
Moon 3:09 AM EST (8/21) 1:46 PM EST (8/21)
Length of Visible Light 11h 52m
Length of Day
11h 01m
Tomorrow will be 1m 54s longer.
Waning Crescent, 20% of the Moon is Illuminated
Aug 20
Waning Crescent
Aug 25
New
Sep 2
First Quarter
Sep 8
Full
Sep 15
Last Quarter

Yesterday's Extremes

Country Highs Country Lows

Community

WunderPhotos

Upload Photos

1,745,689 photos uploaded!

Nearby

Snow Depth

Not available.

Earthquake Activity

City Distance Mag. Time & Date
No recent earthquake activity has been reported nearby.
Minimum magnitude displayed is 2.5.

Coastal Water Temperatures

Place Temperature
No Stations Reporting

Nearby Weather Stations